Time;durP1;ratioP1;P1;durP2;ratioP2;P2;SDS_P1;SDS_P2;PMS_P1;PMS_P2;Temp;Humidity;BMP_temperature;BMP_pressure;BME280_temperature;BME280_humidity;BME280_pressure;Samples;Min_cycle;Max_cycle;Signal;HPM_P1;HPM_P2
2022/07/22 00:00:12;;;;;;;;;;;;;;;-142.75;100.00;77182.53;5047998;28;20331;-71
2022/07/22 00:02:37;;;;;;;;;;;;;;;-142.75;100.00;77178.59;5031683;28;19917;-72
2022/07/22 00:05:03;;;;;;;;;;;;;;;-142.75;100.00;77178.59;5032812;28;20441;-71
2022/07/22 00:07:28;;;;;;;;;;;;;;;-142.75;100.00;77172.69;5032880;28;19913;-72
2022/07/22 00:09:53;;;;;;;;;;;;;;;-142.75;100.00;77172.69;5031611;28;19963;-71
2022/07/22 00:12:18;;;;;;;;;;;;;;;-142.75;100.00;77176.63;5032712;28;19917;-72
2022/07/22 00:14:43;;;;;;;;;;;;;;;-142.75;100.00;77172.69;5032701;28;19975;-71
2022/07/22 00:17:09;;;;;;;;;;;;;;;-142.75;100.00;77164.81;5048079;28;19967;-72
2022/07/22 00:19:35;;;;;;;;;;;;;;;-142.75;100.00;77166.78;5032390;28;19952;-72
2022/07/22 00:22:00;;;;;;;;;;;;;;;-142.75;100.00;77162.84;5032729;28;19967;-71
2022/07/22 00:24:25;;;;;;;;;;;;;;;-142.75;100.00;77158.91;5048064;28;19920;-71
2022/07/22 00:26:50;;;;;;;;;;;;;;;-142.75;100.00;77154.97;5032479;28;19913;-72
2022/07/22 00:29:16;;;;;;;;;;;;;;;-142.75;100.00;77154.97;5030961;28;19921;-72
2022/07/22 00:31:41;;;;;;;;;;;;;;;-142.75;100.00;77156.94;5032478;28;20577;-71
2022/07/22 00:34:06;;;;;;;;;;;;;;;-142.75;100.00;77162.84;5030968;28;19913;-71
2022/07/22 00:36:32;;;;;;;;;;;;;;;-142.75;100.00;77166.78;5032399;28;20012;-71
2022/07/22 00:38:58;;;;;;;;;;;;;;;-142.75;100.00;77158.91;5032028;28;19916;-72
2022/07/22 00:41:24;;;;;;;;;;;;;;;-142.75;100.00;77168.75;5032343;28;19913;-71
2022/07/22 00:43:49;;;;;;;;;;;;;;;-142.75;100.00;77172.69;5032275;28;19925;-71
2022/07/22 00:46:14;;;;;;;;;;;;;;;-142.75;100.00;77164.81;5032365;28;19909;-71
2022/07/22 00:48:39;;;;;;;;;;;;;;;-142.75;100.00;77160.88;5031993;28;19956;-71
2022/07/22 00:51:04;;;;;;;;;;;;;;;-142.75;100.00;77172.69;5032322;28;19913;-71
2022/07/22 00:53:30;;;;;;;;;;;;;;;-142.75;100.00;77184.50;5032177;28;20338;-72
2022/07/22 00:55:55;;;;;;;;;;;;;;;-142.75;100.00;77182.53;5032022;28;19926;-72
2022/07/22 00:58:21;;;;;;;;;;;;;;;-142.75;100.00;77184.50;5031823;28;19921;-71
2022/07/22 01:00:46;;;;;;;;;;;;;;;-142.75;100.00;77184.50;5032184;28;19917;-72
2022/07/22 01:03:12;;;;;;;;;;;;;;;-142.75;100.00;77188.44;5030896;28;19958;-71
2022/07/22 01:05:37;;;;;;;;;;;;;;;-142.75;100.00;77192.38;5032092;28;19959;-72
2022/07/22 01:08:05;;;;;;;;;;;;;;;-142.75;100.00;77192.38;5031777;28;19966;-71
2022/07/22 01:10:30;;;;;;;;;;;;;;;-142.75;100.00;77188.44;5030822;28;19994;-71
2022/07/22 01:12:55;;;;;;;;;;;;;;;-142.75;100.00;77194.34;5034556;28;20413;-71
2022/07/22 01:15:20;;;;;;;;;;;;;;;-142.75;100.00;77196.31;5036038;28;20024;-71
2022/07/22 01:17:45;;;;;;;;;;;;;;;-142.75;100.00;77188.44;5035868;28;19983;-71
2022/07/22 01:20:11;;;;;;;;;;;;;;;-142.75;100.00;77192.38;5035903;28;20307;-72
2022/07/22 01:22:36;;;;;;;;;;;;;;;-142.75;100.00;77192.38;5034715;28;19913;-72
2022/07/22 01:25:02;;;;;;;;;;;;;;;-142.75;100.00;77190.41;5035813;28;19913;-71
2022/07/22 01:27:29;;;;;;;;;;;;;;;-142.75;100.00;77184.50;5035852;28;19975;-72
2022/07/22 01:29:54;;;;;;;;;;;;;;;-142.75;100.00;77184.50;5035561;28;19913;-71
2022/07/22 01:32:19;;;;;;;;;;;;;;;-142.75;100.00;77188.44;5051175;28;20386;-71
2022/07/22 01:34:45;;;;;;;;;;;;;;;-142.75;100.00;77192.38;5035545;28;19917;-72
2022/07/22 01:37:10;;;;;;;;;;;;;;;-142.75;100.00;77186.47;5035638;28;19923;-72
2022/07/22 01:39:36;;;;;;;;;;;;;;;-142.75;100.00;77182.53;5035314;28;19996;-71
2022/07/22 01:42:01;;;;;;;;;;;;;;;-142.75;100.00;77180.56;5034266;28;19913;-72
2022/07/22 01:44:26;;;;;;;;;;;;;;;-142.75;100.00;77176.63;5035463;28;19913;-71
2022/07/22 01:46:51;;;;;;;;;;;;;;;-142.75;100.00;77176.63;5035694;28;19913;-72
2022/07/22 01:49:16;;;;;;;;;;;;;;;-142.75;100.00;77168.75;5035242;28;19974;-71
2022/07/22 01:51:42;;;;;;;;;;;;;;;-142.75;100.00;77172.69;5035500;28;19913;-71
2022/07/22 01:54:07;;;;;;;;;;;;;;;-142.75;100.00;77168.75;5034057;28;19968;-71
2022/07/22 01:56:32;;;;;;;;;;;;;;;-142.75;100.00;77160.88;5033892;28;20412;-71
2022/07/22 01:58:57;;;;;;;;;;;;;;;-142.75;100.00;77166.78;5035088;28;20406;-71
2022/07/22 02:01:24;;;;;;;;;;;;;;;-142.75;100.00;77164.81;5035285;28;20341;-71
2022/07/22 02:03:49;;;;;;;;;;;;;;;-142.75;100.00;77170.72;5050558;28;19936;-71
2022/07/22 02:06:14;;;;;;;;;;;;;;;-142.75;100.00;77172.69;5035172;28;20371;-71
2022/07/22 02:08:40;;;;;;;;;;;;;;;-142.75;100.00;77168.75;5034864;28;19920;-72
2022/07/22 02:11:05;;;;;;;;;;;;;;;-142.75;100.00;77172.69;5034992;28;20294;-71
2022/07/22 02:13:30;;;;;;;;;;;;;;;-142.75;100.00;77166.78;5050372;28;19920;-71
2022/07/22 02:15:55;;;;;;;;;;;;;;;-142.75;100.00;77168.75;5034839;28;19960;-71
2022/07/22 02:18:20;;;;;;;;;;;;;;;-142.75;100.00;77168.75;5034708;28;19964;-71
2022/07/22 02:20:46;;;;;;;;;;;;;;;-142.75;100.00;77168.75;5034868;28;19939;-71
2022/07/22 02:23:12;;;;;;;;;;;;;;;-142.75;100.00;77164.81;5033390;28;19958;-71
2022/07/22 02:25:37;;;;;;;;;;;;;;;-142.75;100.00;77168.75;5034679;28;19971;-72
2022/07/22 02:28:03;;;;;;;;;;;;;;;-142.75;100.00;77168.75;5034530;28;20298;-71
2022/07/22 02:30:28;;;;;;;;;;;;;;;-142.75;100.00;77170.72;5033402;28;19960;-71
2022/07/22 02:32:54;;;;;;;;;;;;;;;-142.75;100.00;77158.91;5034727;28;19913;-72
2022/07/22 02:35:19;;;;;;;;;;;;;;;-142.75;100.00;77162.84;5034491;28;19921;-70
2022/07/22 02:37:44;;;;;;;;;;;;;;;-142.75;100.00;77164.81;5034304;28;20385;-70
2022/07/22 02:40:09;;;;;;;;;;;;;;;-142.75;100.00;77156.94;5034319;28;19913;-71
2022/07/22 02:42:35;;;;;;;;;;;;;;;-142.75;100.00;77153.00;5033194;28;19995;-71
2022/07/22 02:45:00;;;;;;;;;;;;;;;-142.75;100.00;77149.06;5033117;28;19936;-72
2022/07/22 02:47:25;;;;;;;;;;;;;;;-142.75;100.00;77153.00;5034432;28;20327;-71
2022/07/22 02:49:51;;;;;;;;;;;;;;;-142.75;100.00;77149.06;5034122;28;19913;-71
2022/07/22 02:52:16;;;;;;;;;;;;;;;-142.75;100.00;77145.13;5033001;28;19971;-71
2022/07/22 02:54:42;;;;;;;;;;;;;;;-142.75;100.00;77145.13;5034160;28;19917;-71
2022/07/22 02:57:07;;;;;;;;;;;;;;;-142.75;100.00;77153.00;5034128;28;20016;-72
2022/07/22 02:59:32;;;;;;;;;;;;;;;-142.75;100.00;77153.00;5033913;28;20295;-71
2022/07/22 03:01:57;;;;;;;;;;;;;;;-142.75;100.00;77151.03;5034099;28;19921;-72
2022/07/22 03:04:22;;;;;;;;;;;;;;;-142.75;100.00;77153.00;5049360;28;19913;-71
2022/07/22 03:06:48;;;;;;;;;;;;;;;-142.75;100.00;77158.91;5049362;28;20282;-71
2022/07/22 03:09:13;;;;;;;;;;;;;;;-142.75;100.00;77156.94;5033694;28;19913;-71
2022/07/22 03:11:38;;;;;;;;;;;;;;;-142.75;100.00;77164.81;5033910;28;20359;-71
2022/07/22 03:14:03;;;;;;;;;;;;;;;-142.75;100.00;77162.84;5033905;28;20438;-71
2022/07/22 03:16:28;;;;;;;;;;;;;;;-142.75;100.00;77156.94;5032508;28;19917;-71
2022/07/22 03:18:54;;;;;;;;;;;;;;;-142.75;100.00;77164.81;5033530;28;19913;-72
2022/07/22 03:21:19;;;;;;;;;;;;;;;-142.75;100.00;77158.91;5049036;28;19914;-71
2022/07/22 03:23:44;;;;;;;;;;;;;;;-142.75;100.00;77154.97;5032475;28;20299;-72
2022/07/22 03:26:09;;;;;;;;;;;;;;;-142.75;100.00;77174.66;5033514;28;20520;-71
2022/07/22 03:28:34;;;;;;;;;;;;;;;-142.75;100.00;77186.47;5033317;28;19917;-70
2022/07/22 03:31:00;;;;;;;;;;;;;;;-142.75;100.00;77194.34;5033653;28;19913;-71
2022/07/22 03:33:25;;;;;;;;;;;;;;;-142.75;100.00;77196.31;5033524;28;19913;-71
2022/07/22 03:35:50;;;;;;;;;;;;;;;-142.75;100.00;77196.31;5065039;22;19994;-69
2022/07/22 03:38:15;;;;;;;;;;;;;;;-142.75;100.00;77200.25;5033754;28;19966;-69
2022/07/22 03:40:41;;;;;;;;;;;;;;;-142.75;100.00;77202.22;5052949;28;19936;-68
2022/07/22 03:43:06;;;;;;;;;;;;;;;-142.75;100.00;77204.19;5053262;28;20000;-69
2022/07/22 03:45:31;;;;;;;;;;;;;;;-142.75;100.00;77210.09;5035291;28;19958;-69
2022/07/22 03:47:57;;;;;;;;;;;;;;;-142.75;100.00;77208.13;5052864;28;20367;-68
2022/07/22 03:50:23;;;;;;;;;;;;;;;-142.75;100.00;77208.13;5053097;28;19919;-68
2022/07/22 03:52:48;;;;;;;;;;;;;;;-142.75;100.00;77208.13;5053101;28;19913;-69
2022/07/22 03:55:13;;;;;;;;;;;;;;;-142.75;100.00;77208.13;5052977;28;19912;-69
2022/07/22 03:57:38;;;;;;;;;;;;;;;-142.75;100.00;77208.13;5052877;28;19990;-69
2022/07/22 04:00:04;;;;;;;;;;;;;;;-142.75;100.00;77206.16;5052754;28;19913;-69
2022/07/22 04:02:30;;;;;;;;;;;;;;;-142.75;100.00;77208.13;5052879;28;20370;-69
2022/07/22 04:04:55;;;;;;;;;;;;;;;-142.75;100.00;77212.06;5052723;28;19913;-69
2022/07/22 04:07:20;;;;;;;;;;;;;;;-142.75;100.00;77208.13;5052876;28;19913;-68
2022/07/22 04:09:45;;;;;;;;;;;;;;;-142.75;100.00;77212.06;5052546;28;19916;-69
2022/07/22 04:12:11;;;;;;;;;;;;;;;-142.75;100.00;77210.09;5052715;28;19913;-69
2022/07/22 04:14:36;;;;;;;;;;;;;;;-142.75;100.00;77206.16;5034756;28;19913;-69
2022/07/22 04:17:01;;;;;;;;;;;;;;;-142.75;100.00;77202.22;5052619;28;20007;-69
2022/07/22 04:19:26;;;;;;;;;;;;;;;-142.75;100.00;77196.31;5052313;28;20374;-69
2022/07/22 04:21:51;;;;;;;;;;;;;;;-142.75;100.00;77202.22;5052600;28;19913;-69
2022/07/22 04:24:17;;;;;;;;;;;;;;;-142.75;100.00;77202.22;5052746;28;19975;-68
2022/07/22 04:26:42;;;;;;;;;;;;;;;-142.75;100.00;77196.31;5034621;28;19916;-69
2022/07/22 04:29:07;;;;;;;;;;;;;;;-142.75;100.00;77192.38;5034350;28;19916;-69
2022/07/22 04:31:32;;;;;;;;;;;;;;;-142.75;100.00;77184.50;5052467;28;20001;-69
2022/07/22 04:33:58;;;;;;;;;;;;;;;-142.75;100.00;77180.56;5034518;28;19917;-69
2022/07/22 04:36:23;;;;;;;;;;;;;;;-142.75;100.00;77172.69;5052173;28;19927;-68
2022/07/22 04:38:48;;;;;;;;;;;;;;;-142.75;100.00;77164.81;5052068;28;19956;-69
2022/07/22 04:41:13;;;;;;;;;;;;;;;-142.75;100.00;77160.88;5052259;28;19941;-69
2022/07/22 04:43:38;;;;;;;;;;;;;;;-142.75;100.00;77160.88;5034395;28;19960;-69
2022/07/22 04:46:05;;;;;;;;;;;;;;;-142.75;100.00;77151.03;5033738;28;19913;-69
2022/07/22 04:48:30;;;;;;;;;;;;;;;-142.75;100.00;77143.16;5051840;28;20386;-69
2022/07/22 04:50:58;;;;;;;;;;;;;;;-142.75;100.00;77145.13;5052229;28;19948;-68
2022/07/22 04:53:23;;;;;;;;;;;;;;;-142.75;100.00;77133.31;5052171;28;19916;-69
2022/07/22 04:55:48;;;;;;;;;;;;;;;-142.75;100.00;77125.44;5051934;28;19966;-69
2022/07/22 04:58:13;;;;;;;;;;;;;;;-142.75;100.00;77123.47;5051801;28;20298;-69
2022/07/22 05:00:38;;;;;;;;;;;;;;;-142.75;100.00;77113.63;5034251;28;20389;-69
2022/07/22 05:03:04;;;;;;;;;;;;;;;-142.75;100.00;77103.78;5034148;28;19913;-69
2022/07/22 05:05:29;;;;;;;;;;;;;;;-142.75;100.00;77107.72;5051992;28;19912;-69
2022/07/22 05:07:54;;;;;;;;;;;;;;;-142.75;100.00;77105.75;5051732;28;19967;-68
2022/07/22 05:10:19;;;;;;;;;;;;;;;-142.75;100.00;77101.81;5034136;28;19938;-69
2022/07/22 05:12:45;;;;;;;;;;;;;;;-142.75;100.00;77103.78;5034164;28;19913;-70
2022/07/22 05:15:10;;;;;;;;;;;;;;;-142.75;100.00;77093.94;5052125;28;19913;-70
2022/07/22 05:17:35;;;;;;;;;;;;;;;-142.75;100.00;77082.13;5051810;28;20529;-69
2022/07/22 05:20:04;;;;;;;;;;;;;;;-142.75;100.00;77078.19;5051719;28;19952;-69
2022/07/22 05:22:30;;;;;;;;;;;;;;;-142.75;100.00;77084.09;5051879;28;19943;-69
2022/07/22 05:24:55;;;;;;;;;;;;;;;-142.75;100.00;77070.31;5051733;28;19912;-69
2022/07/22 05:27:20;;;;;;;;;;;;;;;-142.75;100.00;77066.38;5051814;28;19913;-68
2022/07/22 05:29:45;;;;;;;;;;;;;;;-142.75;100.00;77058.50;5051527;28;19920;-69
2022/07/22 05:32:10;;;;;;;;;;;;;;;-142.75;100.00;77062.44;5033862;28;19913;-69
2022/07/22 05:34:35;;;;;;;;;;;;;;;-142.75;100.00;77062.44;5051579;28;19913;-69
2022/07/22 05:37:01;;;;;;;;;;;;;;;-142.75;100.00;77054.56;5051740;28;19916;-69
2022/07/22 05:39:26;;;;;;;;;;;;;;;-142.75;100.00;77058.50;5051347;28;19938;-68
2022/07/22 05:41:51;;;;;;;;;;;;;;;-142.75;100.00;77050.63;5051721;28;19956;-68
2022/07/22 05:44:16;;;;;;;;;;;;;;;-142.75;100.00;77040.78;5051713;28;19913;-69
2022/07/22 05:46:42;;;;;;;;;;;;;;;-142.75;100.00;77034.88;5033753;28;20290;-69
2022/07/22 05:49:07;;;;;;;;;;;;;;;-142.75;100.00;77038.81;5051358;28;19921;-69
2022/07/22 05:51:34;;;;;;;;;;;;;;;-142.75;100.00;77030.94;5051668;28;19919;-69
2022/07/22 05:53:59;;;;;;;;;;;;;;;-142.75;100.00;77030.94;5051593;28;19913;-69
2022/07/22 05:56:24;;;;;;;;;;;;;;;-142.75;100.00;77011.25;5051439;28;19940;-69
2022/07/22 05:58:50;;;;;;;;;;;;;;;-142.75;100.00;77001.41;5053376;28;20386;-69
2022/07/22 06:01:15;;;;;;;;;;;;;;;-142.75;100.00;77003.38;5055251;28;20026;-69
2022/07/22 06:03:41;;;;;;;;;;;;;;;-142.75;100.00;76989.59;5055215;28;19913;-69
2022/07/22 06:06:08;;;;;;;;;;;;;;;-142.75;100.00;76983.69;5055114;28;19916;-69
2022/07/22 06:08:33;;;;;;;;;;;;;;;-142.75;100.00;76985.66;5054805;28;19919;-69
2022/07/22 06:10:59;;;;;;;;;;;;;;;-142.75;100.00;76983.69;5054976;28;20366;-69
2022/07/22 06:13:24;;;;;;;;;;;;;;;-142.75;100.00;76981.72;5055069;28;19913;-69
2022/07/22 06:15:49;;;;;;;;;;;;;;;-142.75;100.00;76967.94;5054820;28;20000;-69
2022/07/22 06:18:15;;;;;;;;;;;;;;;-142.75;100.00;76967.94;5054564;28;20007;-69
2022/07/22 06:20:40;;;;;;;;;;;;;;;-142.75;100.00;76956.13;5054903;28;19986;-69
2022/07/22 06:23:05;;;;;;;;;;;;;;;-142.75;100.00;76946.28;5054749;28;19912;-68
2022/07/22 06:25:30;;;;;;;;;;;;;;;-142.75;100.00;76944.31;5036781;28;19917;-69
2022/07/22 06:27:55;;;;;;;;;;;;;;;-142.75;100.00;76932.50;5054459;28;19913;-69
2022/07/22 06:30:21;;;;;;;;;;;;;;;-142.75;100.00;76936.44;5054727;28;19920;-69
2022/07/22 06:32:46;;;;;;;;;;;;;;;-142.75;100.00;76928.56;5054573;28;19913;-69
2022/07/22 06:35:11;;;;;;;;;;;;;;;-142.75;100.00;76934.47;5054431;28;20287;-68
2022/07/22 06:37:36;;;;;;;;;;;;;;;-142.75;100.00;76936.44;5054437;28;19920;-69
2022/07/22 06:40:02;;;;;;;;;;;;;;;-142.75;100.00;76936.44;5054132;28;19948;-68
2022/07/22 06:42:27;;;;;;;;;;;;;;;-142.75;100.00;76938.41;5054558;28;19917;-68
2022/07/22 06:44:52;;;;;;;;;;;;;;;-142.75;100.00;76932.50;5054293;28;19913;-69
2022/07/22 06:47:18;;;;;;;;;;;;;;;-142.75;100.00;76938.41;5054382;28;19955;-70
2022/07/22 06:49:43;;;;;;;;;;;;;;;-142.75;100.00;76924.63;5054017;28;19935;-70
2022/07/22 06:52:08;;;;;;;;;;;;;;;-142.75;100.00;76910.84;5036416;28;20286;-70
2022/07/22 06:54:33;;;;;;;;;;;;;;;-142.75;100.00;76912.81;5053915;28;19949;-70
2022/07/22 06:56:59;;;;;;;;;;;;;;;-142.75;100.00;76904.94;5036231;28;19924;-71
2022/07/22 06:59:24;;;;;;;;;;;;;;;-142.75;100.00;76906.91;5052739;28;19966;-69
2022/07/22 07:01:50;;;;;;;;;;;;;;;-142.75;100.00;76906.91;5053254;28;19919;-70
2022/07/22 07:04:16;;;;;;;;;;;;;;;-142.75;100.00;76897.06;5053524;28;19913;-70
2022/07/22 07:06:41;;;;;;;;;;;;;;;-142.75;100.00;76899.03;5053989;28;19920;-70
2022/07/22 07:09:07;;;;;;;;;;;;;;;-142.75;100.00;76891.16;5052924;28;19916;-69
2022/07/22 07:11:33;;;;;;;;;;;;;;;-142.75;100.00;76877.38;5053536;28;19912;-70
2022/07/22 07:13:58;;;;;;;;;;;;;;;-142.75;100.00;76877.38;5053932;28;20033;-70
2022/07/22 07:16:23;;;;;;;;;;;;;;;-142.75;100.00;76877.38;5043596;28;19924;-70
2022/07/22 07:18:48;;;;;;;;;;;;;;;-142.75;100.00;76863.59;5033496;28;19913;-70
2022/07/22 07:21:13;;;;;;;;;;;;;;;-142.75;100.00;76865.56;5033794;28;19920;-70
2022/07/22 07:23:39;;;;;;;;;;;;;;;-142.75;100.00;76855.72;5033635;28;19924;-69
2022/07/22 07:26:04;;;;;;;;;;;;;;;-142.75;100.00;76843.91;5033607;28;20008;-70
2022/07/22 07:28:29;;;;;;;;;;;;;;;-142.75;100.00;76818.31;5032942;28;19967;-71
2022/07/22 07:30:54;;;;;;;;;;;;;;;-142.75;100.00;76802.56;5015450;28;19943;-71
2022/07/22 07:33:20;;;;;;;;;;;;;;;-142.75;100.00;76804.53;5033582;28;19913;-69
2022/07/22 07:35:45;;;;;;;;;;;;;;;-142.75;100.00;76790.78;5033357;28;19921;-68
2022/07/22 07:38:10;;;;;;;;;;;;;;;-142.75;100.00;76777.00;5033107;28;19925;-68
2022/07/22 07:40:35;;;;;;;;;;;;;;;-142.75;100.00;76755.34;5033378;28;19913;-68
2022/07/22 07:43:01;;;;;;;;;;;;;;;-142.75;100.00;76743.53;5033845;28;19936;-69
2022/07/22 07:45:26;;;;;;;;;;;;;;;-142.75;100.00;76741.56;5033300;28;19974;-70
2022/07/22 07:47:51;;;;;;;;;;;;;;;-142.75;100.00;76737.63;5033171;28;19913;-70
2022/07/22 07:50:16;;;;;;;;;;;;;;;-142.75;100.00;76737.63;5032986;28;19913;-69
2022/07/22 07:52:42;;;;;;;;;;;;;;;-142.75;100.00;76743.53;5033136;28;19920;-68
2022/07/22 07:55:08;;;;;;;;;;;;;;;-142.75;100.00;76743.53;5033014;28;20275;-69
2022/07/22 07:57:34;;;;;;;;;;;;;;;-142.75;100.00;76731.72;5033047;28;19917;-69
2022/07/22 07:59:59;;;;;;;;;;;;;;;-142.75;100.00;76751.41;5032994;28;19913;-69
2022/07/22 08:02:24;;;;;;;;;;;;;;;-142.75;100.00;76741.56;5033046;28;19920;-69
2022/07/22 08:04:50;;;;;;;;;;;;;;;-142.75;100.00;76739.59;5032977;28;19948;-69
2022/07/22 08:07:15;;;;;;;;;;;;;;;-142.75;100.00;76745.50;5032959;28;19917;-69
2022/07/22 08:09:40;;;;;;;;;;;;;;;-142.75;100.00;76741.56;5032570;28;20378;-69
2022/07/22 08:12:06;;;;;;;;;;;;;;;-142.75;100.00;76741.56;5032877;28;19913;-69
2022/07/22 08:14:31;;;;;;;;;;;;;;;-142.75;100.00;76735.66;5032722;28;19913;-69
2022/07/22 08:16:57;;;;;;;;;;;;;;;-142.75;100.00;76704.16;5032754;28;19920;-69
2022/07/22 08:19:22;;;;;;;;;;;;;;;-142.75;100.00;76694.31;5032439;28;19913;-69
2022/07/22 08:21:47;;;;;;;;;;;;;;;-142.75;100.00;76674.63;5032474;28;19924;-69
2022/07/22 08:24:12;;;;;;;;;;;;;;;-142.75;100.00;76666.75;5032570;28;19923;-69
2022/07/22 08:26:37;;;;;;;;;;;;;;;-142.75;100.00;76651.00;5032551;28;19984;-69
2022/07/22 08:29:03;;;;;;;;;;;;;;;-142.75;100.00;76639.19;5032272;28;19917;-69
2022/07/22 08:31:29;;;;;;;;;;;;;;;-142.75;100.00;76623.44;5032606;28;19920;-70
2022/07/22 08:33:54;;;;;;;;;;;;;;;-142.75;100.00;76621.47;5032494;28;20363;-70
2022/07/22 08:36:19;;;;;;;;;;;;;;;-142.75;100.00;76609.66;5032245;28;19921;-69
2022/07/22 08:38:44;;;;;;;;;;;;;;;-142.75;100.00;76617.53;5014365;28;19920;-68
2022/07/22 08:41:10;;;;;;;;;;;;;;;-142.75;100.00;76621.47;5032437;28;19917;-68
2022/07/22 08:43:37;;;;;;;;;;;;;;;-142.75;100.00;76611.63;5032330;28;19918;-68
2022/07/22 08:46:02;;;;;;;;;;;;;;;-142.75;100.00;76605.72;5032343;28;19966;-69
2022/07/22 08:48:27;;;;;;;;;;;;;;;-142.75;100.00;76601.78;5032021;28;19917;-69
2022/07/22 08:50:52;;;;;;;;;;;;;;;-142.75;100.00;76601.78;5031028;28;19913;-70
2022/07/22 08:53:18;;;;;;;;;;;;;;;-142.75;100.00;76601.78;5032156;28;19913;-69
2022/07/22 08:55:44;;;;;;;;;;;;;;;-142.75;100.00;76607.69;5032165;28;20294;-69
2022/07/22 08:58:09;;;;;;;;;;;;;;;-142.75;100.00;76629.34;5031834;28;19917;-69
2022/07/22 09:00:35;;;;;;;;;;;;;;;-142.75;100.00;76627.38;5032180;28;19920;-69
2022/07/22 09:03:00;;;;;;;;;;;;;;;-142.75;100.00;76645.09;5032170;28;19920;-70
2022/07/22 09:05:31;;;;;;;;;;;;;;;-142.75;100.00;76629.34;5032065;28;19913;-69
2022/07/22 09:07:58;;;;;;;;;;;;;;;-142.75;100.00;76633.28;5031756;28;19913;-69
2022/07/22 09:10:23;;;;;;;;;;;;;;;-142.75;100.00;76633.28;5032012;28;19996;-69
2022/07/22 09:12:53;;;;;;;;;;;;;;;-142.75;100.00;76625.41;5032041;28;20000;-70
2022/07/22 09:15:25;;;;;;;;;;;;;;;-142.75;100.00;76625.41;5032016;28;19920;-69
2022/07/22 09:17:51;;;;;;;;;;;;;;;-142.75;100.00;76625.41;5031810;28;19917;-69
2022/07/22 09:20:17;;;;;;;;;;;;;;;-142.75;100.00;76633.28;5031895;28;20338;-69
2022/07/22 09:22:44;;;;;;;;;;;;;;;-142.75;100.00;76637.22;5031952;28;19913;-69
2022/07/22 09:25:30;;;;;;;;;;;;;;;-142.75;100.00;76639.19;5031886;28;19917;-69
2022/07/22 09:28:15;;;;;;;;;;;;;;;-142.75;100.00;76637.22;5031691;28;19913;-68
2022/07/22 09:30:51;;;;;;;;;;;;;;;-142.75;100.00;76641.16;5031537;28;19913;-69
2022/07/22 09:33:17;;;;;;;;;;;;;;;-142.75;100.00;76643.13;5033347;28;19913;-69
2022/07/22 09:35:43;;;;;;;;;;;;;;;-142.75;100.00;76649.03;5052947;22;19929;-70
2022/07/22 09:38:09;;;;;;;;;;;;;;;-142.75;100.00;76652.97;5054246;28;19924;-69
2022/07/22 09:40:35;;;;;;;;;;;;;;;-142.75;100.00;76660.84;5055000;28;20289;-70
2022/07/22 09:43:02;;;;;;;;;;;;;;;-142.75;100.00;76658.88;5055558;28;19913;-69
2022/07/22 09:45:28;;;;;;;;;;;;;;;-142.75;100.00;76651.00;5055662;28;19913;-71
2022/07/22 09:47:54;;;;;;;;;;;;;;;-142.75;100.00;76635.25;5053927;28;19913;-69
2022/07/22 09:50:21;;;;;;;;;;;;;;;-142.75;100.00;76613.59;5055542;28;19944;-70
2022/07/22 09:52:49;;;;;;;;;;;;;;;-142.75;100.00;76597.84;5055514;28;20377;-70
2022/07/22 09:55:15;;;;;;;;;;;;;;;-142.75;100.00;76570.28;5054018;28;19913;-70
2022/07/22 09:57:41;;;;;;;;;;;;;;;-142.75;100.00;76519.13;5055187;28;20297;-70
2022/07/22 10:00:09;;;;;;;;;;;;;;;-142.75;100.00;76452.19;5055257;28;20003;-70
2022/07/22 10:02:39;;;;;;;;;;;;;;;-142.75;100.00;76385.25;5055185;28;19912;-70
2022/07/22 10:05:04;;;;;;;;;;;;;;;-142.75;100.00;76330.16;5055132;28;19913;-70
2022/07/22 10:07:30;;;;;;;;;;;;;;;-142.75;97.84;76306.53;5055030;28;20440;-70
2022/07/22 10:09:55;;;;;;;;;;;;;;;-142.75;97.87;76282.91;5054900;28;19913;-71
2022/07/22 10:12:20;;;;;;;;;;;;;;;-142.75;98.93;76271.09;5053774;28;19916;-69
2022/07/22 10:14:46;;;;;;;;;;;;;;;-142.75;98.87;76245.50;5055037;28;19917;-70
2022/07/22 10:17:14;;;;;;;;;;;;;;;-142.75;100.00;76239.59;5054832;28;19932;-69
2022/07/22 10:19:40;;;;;;;;;;;;;;;-142.75;100.00;76243.53;5054723;28;19920;-70
2022/07/22 10:22:25;;;;;;;;;;;;;;;-142.75;91.65;76263.22;5054929;28;19912;-70
2022/07/22 10:25:00;;;;;;;;;;;;;;;-142.75;92.13;76271.09;5055011;28;19913;-70
2022/07/22 10:27:44;;;;;;;;;;;;;;;-142.75;88.48;76302.59;5054898;28;20437;-70
2022/07/22 10:30:09;;;;;;;;;;;;;;;-142.75;90.78;76330.16;5054880;28;19920;-69
2022/07/22 10:32:34;;;;;;;;;;;;;;;-142.75;92.71;76349.81;5054887;28;20298;-69
2022/07/22 10:35:09;;;;;;;;;;;;;;;-142.75;93.95;76385.25;5054552;28;20007;-69
2022/07/22 10:37:34;;;;;;;;;;;;;;;-142.75;100.00;76387.22;5053440;28;20012;-70
2022/07/22 10:40:21;;;;;;;;;;;;;;;-142.75;100.00;76393.13;5054281;28;20397;-69
2022/07/22 10:43:03;;;;;;;;;;;;;;;-142.75;100.00;76349.81;5054719;28;19913;-70
2022/07/22 10:45:48;;;;;;;;;;;;;;;-142.75;100.00;76318.34;5054445;28;19947;-70
2022/07/22 10:48:34;;;;;;;;;;;;;;;-142.75;100.00;76341.97;5046959;28;20291;-70
2022/07/22 10:51:14;;;;;;;;;;;;;;;-142.75;96.98;76361.63;5047190;28;20047;-70
2022/07/22 10:53:42;;;;;;;;;;;;;;;-142.75;100.00;76363.59;5054592;28;19913;-68
2022/07/22 10:56:18;;;;;;;;;;;;;;;-142.75;100.00;76381.31;5044206;28;19973;-67
2022/07/22 10:58:45;;;;;;;;;;;;;;;-142.75;100.00;76340.00;5033381;28;20303;-69
2022/07/22 11:01:12;;;;;;;;;;;;;;;-142.75;91.70;76261.25;5034145;28;19921;-67
2022/07/22 11:03:38;;;;;;;;;;;;;;;-142.75;90.55;76208.09;5032953;28;19999;-68
2022/07/22 11:06:16;;;;;;;;;;;;;;;-142.75;84.30;76196.31;5034146;28;19913;-68
2022/07/22 11:08:42;;;;;;;;;;;;;;;-142.75;85.08;76200.25;5032728;28;19917;-70
2022/07/22 11:11:08;;;;;;;;;;;;;;;-142.75;85.96;76178.59;5034003;28;19917;-68
2022/07/22 11:13:37;;;;;;;;;;;;;;;-142.75;88.21;76166.78;5034070;28;20401;-68
2022/07/22 11:16:15;;;;;;;;;;;;;;;-142.75;88.55;76188.44;5033797;28;19920;-69
2022/07/22 11:18:43;;;;;;;;;;;;;;;-142.75;87.73;76223.84;5033679;28;19920;-67
2022/07/22 11:21:09;;;;;;;;;;;;;;;-142.75;95.90;76241.56;5034037;28;19956;-68
2022/07/22 11:23:34;;;;;;;;;;;;;;;-142.75;95.27;76243.53;5034169;28;20444;-70
2022/07/22 11:25:59;;;;;;;;;;;;;;;-142.75;93.71;76255.34;5033149;28;20023;-66
2022/07/22 11:28:24;;;;;;;;;;;;;;;-142.75;96.96;76243.53;5033290;28;20007;-69
2022/07/22 11:31:04;;;;;;;;;;;;;;;-142.75;85.39;76231.72;5033349;28;19949;-70
2022/07/22 11:33:29;;;;;;;;;;;;;;;-142.75;86.86;76239.59;5031979;28;19917;-70
2022/07/22 11:36:04;;;;;;;;;;;;;;;-142.75;87.94;76255.34;5031769;28;19924;-70
2022/07/22 11:38:42;;;;;;;;;;;;;;;-142.75;91.17;76261.25;5033105;28;20441;-70
2022/07/22 11:41:08;;;;;;;;;;;;;;;-142.75;98.36;76215.97;5033640;28;20453;-69
2022/07/22 11:43:40;;;;;;;;;;;;;;;-142.75;95.77;76200.25;5032547;28;20018;-70
2022/07/22 11:46:05;;;;;;;;;;;;;;;-142.75;86.89;76206.13;5033492;28;20437;-70
2022/07/22 11:48:30;;;;;;;;;;;;;;;-142.75;90.71;76190.41;5033161;28;19952;-69
2022/07/22 11:51:00;;;;;;;;;;;;;;;-142.75;95.40;76188.44;5033325;28;19996;-67
2022/07/22 11:53:26;;;;;;;;;;;;;;;-142.75;100.00;76190.41;5034451;28;20386;-68
2022/07/22 11:55:55;;;;;;;;;;;;;;;-142.75;88.00;76233.69;5050519;28;19962;-67
2022/07/22 11:58:33;;;;;;;;;;;;;;;-142.75;91.90;76239.59;5029749;28;20007;-67
2022/07/22 12:00:58;;;;;;;;;;;;;;;-142.75;92.47;76253.38;5032953;28;20429;-68
2022/07/22 12:03:23;;;;;;;;;;;;;;;-142.75;100.00;76227.78;5031390;28;19917;-70
2022/07/22 12:05:48;;;;;;;;;;;;;;;-142.75;100.00;76210.06;5031791;28;19917;-67
2022/07/22 12:08:14;;;;;;;;;;;;;;;-142.75;100.00;76212.03;5032646;28;19917;-70
2022/07/22 12:10:39;;;;;;;;;;;;;;;-142.75;95.98;76223.84;5032771;28;19913;-71
2022/07/22 12:13:04;;;;;;;;;;;;;;;-142.75;92.72;76225.81;5032652;28;20008;-71